Time;durP1;ratioP1;P1;durP2;ratioP2;P2;SDS_P1;SDS_P2;PMS_P1;PMS_P2;Temp;Humidity;BMP_temperature;BMP_pressure;BME280_temperature;BME280_humidity;BME280_pressure;Samples;Min_cycle;Max_cycle;Signal;HPM_P1;HPM_P2
2023/05/22 00:01:42;;;;;;;13.30;6.40;;;;;;;15.46;46.86;100552.58;102879;1263;137797;-67
2023/05/22 00:04:12;;;;;;;9.40;5.50;;;;;;;15.45;46.86;100551.58;103337;1263;107898;-67
2023/05/22 00:06:42;;;;;;;9.60;4.80;;;;;;;15.44;46.76;100550.05;102909;1263;137787;-67
2023/05/22 00:09:09;;;;;;;9.40;4.40;;;;;;;15.44;46.58;100549.87;103319;1258;106948;-67
2023/05/22 00:11:36;;;;;;;8.30;4.50;;;;;;;15.44;46.46;100547.94;102956;1262;97827;-65
2023/05/22 00:14:03;;;;;;;7.80;4.40;;;;;;;15.45;46.30;100546.15;103548;1262;137512;-66
2023/05/22 00:16:31;;;;;;;6.10;4.10;;;;;;;15.46;46.16;100543.82;103039;1263;108045;-66
2023/05/22 00:19:00;;;;;;;6.80;3.90;;;;;;;15.48;46.19;100543.01;103764;1263;139039;-66
2023/05/22 00:21:28;;;;;;;8.90;4.30;;;;;;;15.50;45.87;100542.41;102992;1261;108018;-67
2023/05/22 00:23:55;;;;;;;9.00;4.50;;;;;;;15.50;45.80;100537.83;102881;1260;137990;-67
2023/05/22 00:26:23;;;;;;;12.70;4.00;;;;;;;15.55;45.64;100540.23;102967;1261;111402;-67
2023/05/22 00:28:52;;;;;;;8.50;3.90;;;;;;;15.57;45.78;100540.65;102771;1263;107639;-67
2023/05/22 00:31:19;;;;;;;5.30;3.60;;;;;;;15.59;45.58;100536.19;102875;1262;137772;-67
2023/05/22 00:33:46;;;;;;;9.20;3.90;;;;;;;15.60;45.43;100538.05;103008;1261;108871;-66
2023/05/22 00:36:14;;;;;;;6.20;4.00;;;;;;;15.61;45.29;100535.58;102916;1263;138034;-66
2023/05/22 00:38:42;;;;;;;5.70;4.00;;;;;;;15.61;45.15;100537.83;103320;1261;111342;-67
2023/05/22 00:41:09;;;;;;;8.30;3.70;;;;;;;15.61;45.09;100536.27;102978;1263;108333;-67
2023/05/22 00:43:38;;;;;;;8.30;3.40;;;;;;;15.60;45.10;100533.33;102925;1261;137889;-67
2023/05/22 00:46:06;;;;;;;6.10;3.20;;;;;;;15.59;44.99;100535.83;103227;1263;108407;-67
2023/05/22 00:48:34;;;;;;;8.00;4.00;;;;;;;15.58;45.01;100535.33;103008;1263;137952;-68
2023/05/22 00:51:02;;;;;;;6.90;3.60;;;;;;;15.58;44.98;100539.02;103013;1261;112076;-67
2023/05/22 00:53:30;;;;;;;8.00;3.50;;;;;;;15.57;44.97;100539.56;103026;1260;107949;-66
2023/05/22 00:55:59;;;;;;;6.40;3.40;;;;;;;15.56;44.96;100532.63;102915;1266;138130;-66
2023/05/22 00:58:28;;;;;;;9.10;3.50;;;;;;;15.55;44.87;100531.60;103433;1261;107512;-66
2023/05/22 01:00:56;;;;;;;6.40;3.60;;;;;;;15.54;44.87;100530.77;103210;1263;137840;-67
2023/05/22 01:03:28;;;;;;;9.90;3.70;;;;;;;15.53;44.92;100533.12;103018;1270;111843;-66
2023/05/22 01:05:56;;;;;;;10.10;4.20;;;;;;;15.52;44.91;100537.02;102268;1258;1003072;-66
2023/05/22 01:08:23;;;;;;;6.70;3.40;;;;;;;15.50;44.85;100536.59;103265;1260;97830;-66
2023/05/22 01:10:56;;;;;;;10.40;3.80;;;;;;;15.49;44.90;100535.61;103067;1260;108470;-66
2023/05/22 01:13:34;;;;;;;7.00;3.50;;;;;;;15.47;45.03;100535.88;102738;1263;138086;-66
2023/05/22 01:16:10;;;;;;;9.10;3.80;;;;;;;15.46;44.89;100540.69;103315;1260;111322;-67
2023/05/22 01:18:46;;;;;;;4.90;3.40;;;;;;;15.44;44.96;100537.08;102820;1262;137835;-66
2023/05/22 01:21:21;;;;;;;9.80;3.60;;;;;;;15.42;45.12;100540.11;103125;1263;98191;-67
2023/05/22 01:24:26;;;;;;;5.90;3.70;;;;;;;15.41;44.92;100540.88;103182;1263;108929;-66
2023/05/22 01:27:24;;;;;;;8.70;3.60;;;;;;;15.39;45.06;100536.23;103036;1263;97718;-67
2023/05/22 01:30:04;;;;;;;5.60;3.20;;;;;;;15.37;44.93;100535.97;103328;1261;109751;-67
2023/05/22 01:32:34;;;;;;;4.90;3.80;;;;;;;15.36;44.91;100537.95;103002;1260;109619;-66
2023/05/22 01:35:05;;;;;;;5.50;3.70;;;;;;;15.34;44.90;100534.73;103459;1261;98047;-67
2023/05/22 01:37:33;;;;;;;6.40;3.40;;;;;;;15.33;44.81;100537.23;102871;1262;138347;-67
2023/05/22 01:40:00;;;;;;;6.20;3.30;;;;;;;15.33;44.74;100535.83;102998;1260;97776;-67
2023/05/22 01:42:29;;;;;;;9.10;3.30;;;;;;;15.32;44.75;100533.42;102854;1261;137842;-67
2023/05/22 01:44:57;;;;;;;7.00;3.20;;;;;;;15.32;44.65;100534.46;102950;1261;108179;-67
2023/05/22 01:47:24;;;;;;;8.00;3.70;;;;;;;15.31;44.71;100533.63;102968;1261;98133;-67
2023/05/22 01:49:53;;;;;;;6.80;3.60;;;;;;;15.30;44.74;100535.11;103288;1261;137770;-66
2023/05/22 01:52:27;;;;;;;5.60;3.60;;;;;;;15.29;44.70;100538.33;103035;1260;97827;-67
2023/05/22 01:54:58;;;;;;;6.90;4.00;;;;;;;15.26;44.82;100537.75;103142;1261;137768;-67
2023/05/22 01:57:32;;;;;;;6.80;3.90;;;;;;;15.23;44.89;100536.47;103033;1259;107367;-67
2023/05/22 02:00:08;;;;;;;7.00;3.50;;;;;;;15.21;44.95;100534.84;102964;1257;138367;-67
2023/05/22 02:02:48;;;;;;;8.90;3.20;;;;;;;15.19;44.97;100538.42;103087;1260;107914;-66
2023/05/22 02:05:19;;;;;;;7.50;3.80;;;;;;;15.17;44.90;100538.52;103233;1262;97749;-67
2023/05/22 02:07:48;;;;;;;5.00;3.70;;;;;;;15.15;44.98;100537.38;102912;1263;137739;-66
2023/05/22 02:10:18;;;;;;;6.30;3.40;;;;;;;15.12;44.92;100536.30;102980;1259;108175;-67
2023/05/22 02:12:46;;;;;;;6.50;3.50;;;;;;;15.09;44.89;100540.97;102931;1261;139386;-66
2023/05/22 02:15:15;;;;;;;7.10;3.80;;;;;;;15.08;44.96;100539.80;103418;1260;106053;-67
2023/05/22 02:17:44;;;;;;;7.90;3.80;;;;;;;15.05;44.96;100536.08;103040;1260;97811;-67
2023/05/22 02:20:14;;;;;;;5.80;3.90;;;;;;;15.04;45.15;100537.34;103090;1259;138291;-67
2023/05/22 02:22:44;;;;;;;10.40;3.60;;;;;;;15.02;45.07;100536.92;103746;1260;108195;-67
2023/05/22 02:25:13;;;;;;;6.00;3.60;;;;;;;14.99;45.11;100539.34;103619;1261;138545;-67
2023/05/22 02:27:41;;;;;;;6.30;3.70;;;;;;;14.98;45.23;100538.35;103015;1261;107488;-67
2023/05/22 02:30:11;;;;;;;7.20;3.50;;;;;;;14.94;45.25;100533.30;103257;1262;137954;-67
2023/05/22 02:32:41;;;;;;;6.90;3.80;;;;;;;14.93;45.24;100535.09;103644;1261;110374;-67
2023/05/22 02:35:10;;;;;;;5.90;3.60;;;;;;;14.91;45.30;100534.81;103909;1260;107224;-67
2023/05/22 02:37:37;;;;;;;4.90;3.90;;;;;;;14.89;45.49;100530.70;103455;1260;138556;-66
2023/05/22 02:40:07;;;;;;;7.80;3.60;;;;;;;14.87;45.60;100525.35;103189;1258;107466;-66
2023/05/22 02:42:34;;;;;;;5.60;3.80;;;;;;;14.85;45.58;100522.13;103212;1263;138017;-67
2023/05/22 02:45:02;;;;;;;8.00;3.60;;;;;;;14.84;45.58;100526.02;103490;1261;111557;-67
2023/05/22 02:47:29;;;;;;;9.30;4.00;;;;;;;14.82;45.63;100527.00;102971;1261;108535;-66
2023/05/22 02:49:58;;;;;;;7.70;4.00;;;;;;;14.80;45.85;100525.86;104186;1259;137885;-67
2023/05/22 02:52:27;;;;;;;6.30;4.10;;;;;;;14.77;45.76;100522.99;102969;1261;108807;-66
2023/05/22 02:54:55;;;;;;;4.70;3.60;;;;;;;14.77;45.86;100517.77;102962;1261;138320;-67
2023/05/22 02:57:22;;;;;;;5.40;3.70;;;;;;;14.75;46.01;100518.02;103318;1259;111341;-66
2023/05/22 02:59:51;;;;;;;6.30;3.70;;;;;;;14.74;46.04;100517.23;102919;1259;109193;-65
2023/05/22 03:02:18;;;;;;;6.40;3.80;;;;;;;14.72;46.04;100516.76;103376;1260;98012;-66
2023/05/22 03:04:47;;;;;;;5.00;3.80;;;;;;;14.71;46.06;100516.61;103131;1260;108880;-65
2023/05/22 03:07:15;;;;;;;6.10;3.50;;;;;;;14.71;46.00;100510.67;102758;1261;138076;-65
2023/05/22 03:09:43;;;;;;;10.70;3.60;;;;;;;14.71;46.16;100512.77;103471;1260;112425;-66
2023/05/22 03:12:11;;;;;;;9.50;3.90;;;;;;;14.71;46.24;100512.61;104181;1259;138797;-66
2023/05/22 03:14:41;;;;;;;10.90;4.00;;;;;;;14.70;46.24;100511.04;103243;1258;97831;-66
2023/05/22 03:17:08;;;;;;;8.20;4.00;;;;;;;14.71;46.33;100509.98;102882;1260;108852;-66
2023/05/22 03:19:36;;;;;;;6.50;3.80;;;;;;;14.70;46.28;100509.65;103122;1261;137868;-66
2023/05/22 03:22:04;;;;;;;10.20;4.30;;;;;;;14.71;46.41;100512.06;103578;1258;110645;-66
2023/05/22 03:24:32;;;;;;;6.60;4.00;;;;;;;14.72;46.41;100511.14;102899;1260;139270;-66
2023/05/22 03:27:00;;;;;;;7.20;3.90;;;;;;;14.74;46.47;100511.44;102890;1259;97825;-66
2023/05/22 03:29:39;;;;;;;9.50;4.10;;;;;;;14.76;46.50;100513.07;102901;1261;109426;-65
2023/05/22 03:32:08;;;;;;;15.30;4.50;;;;;;;14.78;46.53;100511.05;102942;1262;138040;-65
2023/05/22 03:34:35;;;;;;;7.40;4.10;;;;;;;14.81;46.55;100511.81;103226;1260;111251;-65
2023/05/22 03:37:03;;;;;;;8.50;4.00;;;;;;;14.84;46.73;100506.75;102908;1263;137931;-66
2023/05/22 03:39:31;;;;;;;6.30;4.40;;;;;;;14.88;46.79;100506.42;103050;1260;98262;-66
2023/05/22 03:42:02;;;;;;;7.40;4.70;;;;;;;14.92;47.05;100512.38;102897;1260;137841;-66
2023/05/22 03:44:30;;;;;;;7.40;4.80;;;;;;;14.96;47.20;100509.90;102934;1263;97962;-66
2023/05/22 03:46:57;;;;;;;10.20;5.00;;;;;;;15.00;47.46;100508.66;103028;1262;111849;-66
2023/05/22 03:49:25;;;;;;;9.20;4.90;;;;;;;15.03;47.93;100510.28;103241;1259;138044;-66
2023/05/22 03:51:52;;;;;;;11.20;5.60;;;;;;;15.04;47.98;100513.55;102973;1260;97718;-66
2023/05/22 03:54:20;;;;;;;11.30;5.60;;;;;;;15.05;48.52;100514.18;102855;1263;137943;-66
2023/05/22 03:56:47;;;;;;;14.10;6.10;;;;;;;15.05;48.94;100515.05;102876;1261;97812;-66
2023/05/22 03:59:15;;;;;;;12.60;6.00;;;;;;;15.06;49.30;100513.09;103015;1260;112152;-65
2023/05/22 04:01:42;;;;;;;11.50;6.10;;;;;;;15.07;49.75;100516.04;102818;1259;137998;-67
2023/05/22 04:04:11;;;;;;;9.00;6.40;;;;;;;15.07;50.05;100516.90;103042;1259;97783;-66
2023/05/22 04:06:41;;;;;;;17.60;6.70;;;;;;;15.08;50.51;100515.09;103709;1259;137868;-66
2023/05/22 04:09:13;;;;;;;13.80;6.70;;;;;;;15.10;50.80;100517.30;103332;1259;97800;-65
2023/05/22 04:11:41;;;;;;;13.00;7.50;;;;;;;15.12;51.29;100516.70;102994;1260;111871;-66
2023/05/22 04:14:09;;;;;;;15.00;7.30;;;;;;;15.16;51.53;100513.17;104223;1259;138176;-67
2023/05/22 04:16:36;;;;;;;14.60;7.30;;;;;;;15.21;51.86;100508.56;104213;1259;95944;-65
2023/05/22 04:19:04;;;;;;;17.00;6.90;;;;;;;15.27;51.99;100510.90;102913;1258;137794;-66
2023/05/22 04:21:33;;;;;;;10.50;7.50;;;;;;;15.35;52.26;100507.34;103229;1263;97970;-66
2023/05/22 04:24:01;;;;;;;13.00;7.30;;;;;;;15.44;52.26;100506.92;102928;1260;138060;-67
2023/05/22 04:26:30;;;;;;;13.30;8.20;;;;;;;15.52;52.26;100502.67;102982;1259;107511;-66
2023/05/22 04:28:58;;;;;;;11.80;7.40;;;;;;;15.60;52.36;100495.65;103318;1258;97688;-65
2023/05/22 04:31:27;;;;;;;14.30;7.50;;;;;;;15.68;52.28;100492.48;102830;1259;137888;-66
2023/05/22 04:33:54;;;;;;;14.90;7.80;;;;;;;15.75;52.23;100492.84;103018;1259;97799;-66
2023/05/22 04:36:24;;;;;;;13.20;6.80;;;;;;;15.82;52.21;100494.40;102865;1259;137972;-65
2023/05/22 04:38:52;;;;;;;14.60;8.80;;;;;;;15.87;52.11;100492.36;102948;1262;108040;-65
2023/05/22 04:41:21;;;;;;;10.90;7.20;;;;;;;15.95;52.12;100491.97;102995;1261;98489;-65
2023/05/22 04:43:51;;;;;;;11.70;6.70;;;;;;;16.03;52.16;100493.69;102910;1263;137832;-65
2023/05/22 04:46:19;;;;;;;12.40;6.70;;;;;;;16.13;52.30;100491.26;103012;1260;97874;-65
2023/05/22 04:48:47;;;;;;;13.90;7.20;;;;;;;16.22;52.33;100491.29;103301;1259;137809;-65
2023/05/22 04:51:15;;;;;;;8.90;6.80;;;;;;;16.33;52.43;100495.46;102913;1259;108293;-67
2023/05/22 04:53:42;;;;;;;14.30;7.20;;;;;;;16.47;52.41;100493.15;103991;1258;95642;-66
2023/05/22 04:56:10;;;;;;;10.80;7.40;;;;;;;16.62;52.46;100494.11;104153;1258;137805;-66
2023/05/22 04:58:40;;;;;;;12.60;7.70;;;;;;;16.79;52.40;100492.86;103130;1258;97806;-66
2023/05/22 05:01:08;;;;;;;15.00;7.30;;;;;;;16.99;52.13;100492.30;102817;1259;137878;-66
2023/05/22 05:03:36;;;;;;;15.10;7.00;;;;;;;17.17;51.81;100488.66;102912;1259;109446;-66
2023/05/22 05:06:04;;;;;;;13.20;6.80;;;;;;;17.37;51.52;100490.91;102900;1260;138339;-66
2023/05/22 05:08:31;;;;;;;11.70;6.60;;;;;;;17.58;51.44;100486.92;103260;1259;106088;-66
2023/05/22 05:10:58;;;;;;;14.40;7.10;;;;;;;17.82;51.15;100488.69;102997;1259;97836;-66
2023/05/22 05:13:26;;;;;;;16.90;7.00;;;;;;;18.08;50.57;100488.23;102935;1259;137784;-66
2023/05/22 05:15:54;;;;;;;14.50;6.70;;;;;;;18.35;50.27;100492.76;102915;1260;108070;-65
2023/05/22 05:18:21;;;;;;;13.00;6.60;;;;;;;18.68;49.59;100498.52;102786;1259;138742;-66
2023/05/22 05:20:49;;;;;;;10.80;6.10;;;;;;;19.02;49.22;100498.88;103344;1261;107498;-65
2023/05/22 05:23:16;;;;;;;11.30;6.60;;;;;;;19.44;48.60;100498.13;103575;1257;97899;-65
2023/05/22 05:25:44;;;;;;;14.90;5.70;;;;;;;19.90;47.79;100493.34;102993;1260;138068;-65
2023/05/22 05:28:11;;;;;;;11.20;6.10;;;;;;;20.48;47.56;100492.72;102961;1259;108930;-63
2023/05/22 05:30:40;;;;;;;9.60;5.90;;;;;;;21.45;46.98;100495.11;102783;1263;138085;-65
2023/05/22 05:33:26;;;;;;;10.30;5.20;;;;;;;23.20;45.05;100491.92;103806;1258;107562;-66
2023/05/22 05:36:13;;;;;;;12.80;5.10;;;;;;;25.12;42.21;100481.28;102748;1263;138190;-66
2023/05/22 05:38:42;;;;;;;10.80;5.00;;;;;;;26.62;39.44;100478.94;102917;1259;112097;-68
2023/05/22 05:41:10;;;;;;;9.60;4.20;;;;;;;27.82;36.97;100472.52;104235;1258;106400;-67
2023/05/22 05:43:38;;;;;;;8.00;4.50;;;;;;;28.59;34.98;100473.59;104114;1258;138289;-67
2023/05/22 05:46:07;;;;;;;10.20;4.20;;;;;;;29.58;33.87;100474.28;104248;1257;106511;-67
2023/05/22 05:48:34;;;;;;;9.90;4.60;;;;;;;30.96;32.38;100470.59;104138;1259;138287;-67
2023/05/22 05:51:02;;;;;;;8.70;4.40;;;;;;;31.80;30.86;100467.61;104259;1258;113152;-67
2023/05/22 05:53:35;;;;;;;7.10;3.90;;;;;;;31.99;29.47;100468.39;104221;1259;107328;-68
2023/05/22 05:56:02;;;;;;;4.90;3.50;;;;;;;31.85;28.86;100464.51;103261;1259;138841;-67
2023/05/22 05:58:30;;;;;;;4.60;3.20;;;;;;;32.00;27.64;100468.48;103885;1259;107434;-67
2023/05/22 06:01:26;;;;;;;;;;;;;;;32.01;26.31;100469.83;102932;1257;137982;-67
2023/05/22 06:03:54;;;;;;;10.50;3.60;;;;;;;31.94;25.54;100465.84;103303;1257;111685;-66
2023/05/22 06:06:28;;;;;;;8.90;3.30;;;;;;;32.06;25.19;100465.59;102884;1257;138432;-65
2023/05/22 06:09:19;;;;;;;5.50;3.30;;;;;;;31.93;24.99;100460.48;102972;1257;97703;-66
2023/05/22 06:12:05;;;;;;;10.90;2.90;;;;;;;32.30;24.99;100460.23;102927;1261;138202;-66
2023/05/22 06:14:32;;;;;;;7.60;3.50;;;;;;;33.39;24.24;100464.60;103071;1257;98594;-65
2023/05/22 06:17:00;;;;;;;10.50;3.20;;;;;;;34.82;23.35;100459.73;102996;1257;104712;-69
2023/05/22 06:19:27;;;;;;;9.80;3.30;;;;;;;36.09;22.48;100452.96;102967;1257;138015;-67
2023/05/22 06:21:55;;;;;;;7.90;2.70;;;;;;;37.18;21.66;100450.23;103170;1257;97862;-67
2023/05/22 06:24:23;;;;;;;10.10;3.20;;;;;;;38.16;20.79;100448.70;102845;1261;137992;-67
2023/05/22 06:26:50;;;;;;;8.10;3.00;;;;;;;39.10;19.99;100448.38;103192;1257;97771;-67
2023/05/22 06:29:18;;;;;;;11.00;3.00;;;;;;;40.06;19.30;100444.00;103199;1261;102101;-66
2023/05/22 06:31:46;;;;;;;9.90;2.70;;;;;;;40.92;18.47;100439.58;102820;1259;138105;-67
2023/05/22 06:34:16;;;;;;;8.00;3.20;;;;;;;41.49;17.83;100437.93;102990;1261;97921;-68
2023/05/22 06:36:44;;;;;;;16.60;3.10;;;;;;;42.07;17.20;100439.33;102739;1257;138440;-67
2023/05/22 06:39:12;;;;;;;5.70;2.70;;;;;;;42.54;16.69;100436.05;102994;1257;97904;-69
2023/05/22 06:41:55;;;;;;;8.30;3.30;;;;;;;42.94;16.21;100436.20;103079;1257;103948;-68
2023/05/22 06:44:24;;;;;;;8.60;3.10;;;;;;;43.26;16.18;100438.03;103049;1257;99138;-68
2023/05/22 06:46:54;;;;;;;7.20;2.60;;;;;;;43.57;15.83;100444.36;103023;1257;97805;-69
2023/05/22 06:49:23;;;;;;;12.40;3.10;;;;;;;43.66;14.94;100445.01;102855;1261;137638;-69
2023/05/22 06:51:53;;;;;;;8.90;2.40;;;;;;;43.15;14.33;100437.46;103156;1257;97793;-67
2023/05/22 06:54:21;;;;;;;10.80;2.90;;;;;;;42.95;14.72;100441.00;103564;1257;138005;-68
2023/05/22 06:56:52;;;;;;;8.60;2.50;;;;;;;42.85;14.40;100436.70;102965;1257;100860;-69
2023/05/22 06:59:20;;;;;;;5.80;2.60;;;;;;;42.84;14.69;100435.05;103230;1261;97695;-68
2023/05/22 07:02:06;;;;;;;10.00;3.10;;;;;;;43.43;14.92;100435.39;103172;1259;137759;-68
2023/05/22 07:04:47;;;;;;;10.40;3.10;;;;;;;43.89;14.81;100434.30;103501;1259;97802;-68
2023/05/22 07:07:22;;;;;;;9.30;2.90;;;;;;;44.02;14.46;100431.31;102977;1259;137815;-68
2023/05/22 07:09:51;;;;;;;13.00;2.90;;;;;;;43.82;14.42;100432.77;103046;1259;99963;-65
2023/05/22 07:12:19;;;;;;;12.60;3.10;;;;;;;43.08;13.65;100431.17;103182;1259;139439;-70
2023/05/22 07:14:47;;;;;;;13.80;3.10;;;;;;;42.50;14.03;100433.52;102896;1263;99963;-71
2023/05/22 07:17:14;;;;;;;16.10;3.70;;;;;;;42.78;14.28;100425.38;103333;1259;97799;-70
2023/05/22 07:19:42;;;;;;;11.20;3.10;;;;;;;43.35;14.35;100429.27;103431;1259;138030;-69
2023/05/22 07:22:10;;;;;;;22.80;6.20;;;;;;;43.91;14.31;100427.83;102955;1263;100079;-70
2023/05/22 07:24:38;;;;;;;21.80;7.30;;;;;;;44.35;13.74;100421.94;102919;1259;138318;-68
2023/05/22 07:27:07;;;;;;;26.70;8.70;;;;;;;44.66;13.72;100424.28;103633;1260;99214;-69
2023/05/22 07:29:36;;;;;;;21.90;5.80;;;;;;;45.13;13.59;100422.38;103178;1259;97814;-69
2023/05/22 07:32:04;;;;;;;11.10;2.90;;;;;;;45.49;13.03;100422.48;103308;1258;137839;-69
2023/05/22 07:34:33;;;;;;;9.90;2.60;;;;;;;45.36;12.71;100422.09;102918;1263;99280;-70
2023/05/22 07:37:06;;;;;;;7.60;2.50;;;;;;;45.05;11.61;100423.58;102845;1264;137886;-70
2023/05/22 07:39:34;;;;;;;4.40;2.40;;;;;;;44.52;11.79;100417.73;102916;1259;99234;-69
2023/05/22 07:42:01;;;;;;;5.60;2.10;;;;;;;44.20;11.47;100422.97;102952;1259;137595;-69
2023/05/22 07:44:32;;;;;;;9.50;3.20;;;;;;;43.71;11.60;100422.55;104353;1258;103323;-70
2023/05/22 07:46:59;;;;;;;8.20;2.40;;;;;;;43.25;11.54;100419.73;102884;1259;100143;-70
2023/05/22 07:49:28;;;;;;;5.90;1.80;;;;;;;42.60;11.70;100416.15;103271;1261;137842;-70
2023/05/22 07:51:55;;;;;;;5.00;2.40;;;;;;;41.87;11.85;100416.27;103288;1259;99981;-69
2023/05/22 07:54:24;;;;;;;9.50;1.80;;;;;;;41.28;12.10;100414.27;102893;1263;137820;-69
2023/05/22 07:56:51;;;;;;;7.30;2.10;;;;;;;40.14;12.42;100412.73;103004;1259;103665;-69
2023/05/22 07:59:20;;;;;;;7.20;2.00;;;;;;;38.70;12.89;100412.05;102840;1259;295903;-69
2023/05/22 08:01:50;;;;;;;7.80;2.30;;;;;;;37.39;13.55;100411.84;102901;1262;137851;-70
2023/05/22 08:04:17;;;;;;;10.00;2.20;;;;;;;36.27;14.27;100412.16;102972;1259;100157;-70
2023/05/22 08:06:45;;;;;;;5.50;2.40;;;;;;;35.39;14.89;100417.85;102853;1259;138159;-71
2023/05/22 08:09:13;;;;;;;10.80;2.40;;;;;;;34.74;15.48;100424.13;103383;1259;103680;-70
2023/05/22 08:11:41;;;;;;;7.10;2.20;;;;;;;34.32;15.85;100421.58;102915;1259;99408;-71
2023/05/22 08:14:08;;;;;;;5.00;2.10;;;;;;;34.10;15.86;100421.08;102879;1259;137708;-71
2023/05/22 08:16:36;;;;;;;7.50;2.00;;;;;;;34.18;15.94;100420.63;103010;1259;99321;-70
2023/05/22 08:19:04;;;;;;;4.10;1.80;;;;;;;34.28;15.89;100420.15;102887;1263;137653;-70
2023/05/22 08:21:33;;;;;;;9.60;2.10;;;;;;;34.13;16.02;100418.80;103828;1258;103751;-69
2023/05/22 08:24:00;;;;;;;5.10;2.00;;;;;;;34.14;16.17;100414.54;103216;1259;137957;-68
2023/05/22 08:26:28;;;;;;;4.60;2.20;;;;;;;34.30;16.41;100409.27;103541;1259;97891;-70
2023/05/22 08:28:58;;;;;;;2.70;1.80;;;;;;;34.64;16.22;100413.52;102989;1259;101329;-70
2023/05/22 08:31:26;;;;;;;4.20;2.00;;;;;;;34.89;15.64;100413.23;102812;1259;138000;-72
2023/05/22 08:33:55;;;;;;;5.90;2.10;;;;;;;34.97;16.03;100413.31;103006;1259;104006;-70
2023/05/22 08:36:23;;;;;;;4.10;2.00;;;;;;;35.49;16.37;100410.34;102824;1259;138073;-71
2023/05/22 08:38:50;;;;;;;10.60;2.10;;;;;;;35.94;16.27;100409.98;104041;1258;97911;-70
2023/05/22 08:41:18;;;;;;;5.10;2.30;;;;;;;36.40;16.33;100409.20;103576;1260;99778;-70
2023/05/22 08:43:45;;;;;;;5.50;1.80;;;;;;;36.72;15.56;100410.25;102991;1259;137682;-70
2023/05/22 08:46:15;;;;;;;4.50;2.20;;;;;;;36.62;15.25;100408.54;102945;1259;103382;-71
2023/05/22 08:48:43;;;;;;;3.90;1.60;;;;;;;36.57;14.89;100408.30;103050;1259;137874;-71
2023/05/22 08:51:18;;;;;;;5.40;1.70;;;;;;;36.41;14.55;100400.01;102930;1262;98821;-69
2023/05/22 08:53:51;;;;;;;5.30;1.80;;;;;;;35.94;14.65;100401.12;102941;1259;101009;-67
2023/05/22 08:56:20;;;;;;;4.30;1.90;;;;;;;35.50;15.00;100410.59;103002;1259;137709;-68
2023/05/22 08:58:50;;;;;;;2.60;1.70;;;;;;;35.03;14.92;100404.06;103014;1259;103256;-68
2023/05/22 09:01:17;;;;;;;7.20;1.90;;;;;;;34.12;15.41;100404.33;103526;1258;138053;-69
2023/05/22 09:03:47;;;;;;;3.90;2.50;;;;;;;32.96;15.90;100407.14;103175;1259;97811;-68
2023/05/22 09:06:16;;;;;;;4.90;2.50;;;;;;;31.72;16.80;100404.79;103346;1259;137822;-67
2023/05/22 09:08:43;;;;;;;5.60;2.70;;;;;;;30.80;17.56;100407.05;103207;1259;97827;-68
2023/05/22 09:11:11;;;;;;;11.50;2.30;;;;;;;30.20;18.39;100402.61;102778;1259;111343;-67
2023/05/22 09:13:40;;;;;;;6.80;2.40;;;;;;;29.38;18.81;100405.34;103000;1259;137068;-67
2023/05/22 09:16:11;;;;;;;3.30;1.90;;;;;;;28.65;19.54;100403.70;102767;1263;97888;-68
2023/05/22 09:18:40;;;;;;;7.90;2.60;;;;;;;28.28;20.34;100397.92;102816;1262;138024;-67
2023/05/22 09:21:09;;;;;;;11.60;2.80;;;;;;;28.16;21.26;100395.27;103048;1259;97671;-67
2023/05/22 09:23:39;;;;;;;11.10;3.00;;;;;;;28.08;21.18;100395.61;104098;1258;111561;-68
2023/05/22 09:26:06;;;;;;;23.80;5.10;;;;;;;27.92;21.45;100390.38;102848;1259;137986;-68
2023/05/22 09:28:36;;;;;;;4.10;2.40;;;;;;;27.83;22.32;100387.20;102992;1259;97808;-69
2023/05/22 09:31:05;;;;;;;8.70;2.50;;;;;;;27.54;21.95;100394.26;103339;1259;137812;-68
2023/05/22 09:33:32;;;;;;;18.10;3.90;;;;;;;27.18;22.34;100387.36;102943;1263;97706;-70
2023/05/22 09:36:01;;;;;;;13.60;3.50;;;;;;;27.03;22.99;100390.13;102998;1259;113121;-71
2023/05/22 09:38:30;;;;;;;11.70;3.70;;;;;;;26.91;23.12;100392.35;102902;1263;108177;-70
2023/05/22 09:40:58;;;;;;;11.20;3.60;;;;;;;26.83;23.46;100391.42;102990;1263;97835;-70
2023/05/22 09:43:26;;;;;;;7.20;3.00;;;;;;;26.78;23.61;100391.61;102957;1258;137889;-70
2023/05/22 09:46:00;;;;;;;9.10;2.90;;;;;;;26.68;23.50;100386.94;103678;1258;97796;-69
2023/05/22 09:48:28;;;;;;;10.30;3.20;;;;;;;26.59;23.80;100382.70;103130;1259;137855;-70
2023/05/22 09:50:59;;;;;;;8.00;3.10;;;;;;;26.51;23.83;100384.83;102954;1259;107995;-70
2023/05/22 09:53:29;;;;;;;11.80;3.40;;;;;;;26.43;24.08;100381.00;103320;1258;98330;-69
2023/05/22 09:55:59;;;;;;;6.30;2.80;;;;;;;26.40;24.60;100380.93;103769;1259;138059;-67
2023/05/22 09:58:30;;;;;;;3.10;2.60;;;;;;;26.38;24.71;100380.07;103172;1259;98558;-69
2023/05/22 10:01:00;;;;;;;4.10;2.50;;;;;;;26.36;24.12;100377.76;103139;1259;137775;-71
2023/05/22 10:03:28;;;;;;;8.20;2.70;;;;;;;26.24;24.05;100378.20;102917;1261;107825;-62
2023/05/22 10:05:58;;;;;;;4.30;2.60;;;;;;;26.13;24.08;100382.79;102931;1259;97907;-69
2023/05/22 10:08:28;;;;;;;6.60;2.50;;;;;;;26.02;24.23;100376.52;103286;1258;109533;-72
2023/05/22 10:10:57;;;;;;;9.50;3.30;;;;;;;25.94;24.29;100377.11;102966;1259;97790;-71
2023/05/22 10:13:26;;;;;;;8.10;3.30;;;;;;;25.84;24.58;100380.69;102791;1257;137684;-72
2023/05/22 10:15:54;;;;;;;5.60;2.60;;;;;;;25.55;24.52;100382.49;104258;1258;106724;-68
2023/05/22 10:18:22;;;;;;;4.60;2.50;;;;;;;25.37;24.69;100379.21;104160;1259;138592;-68
2023/05/22 10:20:49;;;;;;;8.40;2.60;;;;;;;25.20;24.92;100379.55;103211;1259;107997;-69
2023/05/22 10:23:17;;;;;;;3.90;2.80;;;;;;;25.11;24.86;100376.75;103329;1262;97980;-72
2023/05/22 10:25:45;;;;;;;6.40;2.90;;;;;;;25.01;24.74;100376.12;104139;1259;137706;-71
2023/05/22 10:28:15;;;;;;;7.60;2.80;;;;;;;24.78;25.01;100377.41;104028;1258;106935;-73
2023/05/22 10:30:52;;;;;;;7.20;3.10;;;;;;;24.65;25.46;100375.50;103235;1259;138008;-70
2023/05/22 10:33:38;;;;;;;5.90;2.60;;;;;;;24.89;26.22;100368.77;103060;1258;108412;-69
2023/05/22 10:36:08;;;;;;;5.30;2.60;;;;;;;25.27;26.09;100369.77;103432;1259;138556;-69
2023/05/22 10:39:00;;;;;;;3.30;2.20;;;;;;;25.43;25.35;100366.90;103746;1259;110638;-68
2023/05/22 10:41:29;;;;;;;10.10;2.40;;;;;;;25.32;25.03;100365.10;103281;1262;109799;-72
2023/05/22 10:43:57;;;;;;;7.40;2.80;;;;;;;25.31;25.30;100365.30;102784;1263;138009;-70
2023/05/22 10:46:25;;;;;;;3.40;2.60;;;;;;;25.39;25.33;100365.86;102939;1259;108635;-71
2023/05/22 10:48:54;;;;;;;8.40;2.70;;;;;;;25.29;24.76;100362.29;102953;1259;138095;-70
2023/05/22 10:51:23;;;;;;;3.70;2.10;;;;;;;25.10;24.92;100365.30;103459;1260;110992;-70
2023/05/22 10:53:57;;;;;;;5.50;2.40;;;;;;;24.90;24.98;100363.86;103275;1259;107729;-69
2023/05/22 10:56:32;;;;;;;3.60;2.60;;;;;;;24.82;25.12;100359.11;103085;1259;97798;-72
2023/05/22 10:59:03;;;;;;;8.60;2.70;;;;;;;24.96;25.34;100352.34;103177;1259;108067;-70
2023/05/22 11:01:33;;;;;;;4.50;2.80;;;;;;;25.28;25.60;100353.11;102794;1259;138012;-69
2023/05/22 11:04:11;;;;;;;;;;;;;;;25.57;25.48;100347.62;103458;1259;111467;-69
2023/05/22 11:06:44;;;;;;;4.10;2.50;;;;;;;25.82;25.05;100349.41;102978;1259;124493;-69
2023/05/22 11:09:29;;;;;;;7.30;2.40;;;;;;;26.04;25.11;100345.02;104269;1259;95771;-69
2023/05/22 11:12:19;;;;;;;8.30;3.00;;;;;;;26.46;25.17;100344.70;103003;1259;107600;-68
2023/05/22 11:14:49;;;;;;;7.60;2.40;;;;;;;26.79;24.80;100337.30;103309;1259;97826;-69
2023/05/22 11:17:20;;;;;;;6.70;2.70;;;;;;;27.06;25.10;100336.14;104250;1258;111963;-70
2023/05/22 11:19:57;;;;;;;5.30;2.60;;;;;;;27.43;24.85;100335.92;103139;1259;137963;-70
2023/05/22 11:22:29;;;;;;;5.10;2.90;;;;;;;27.60;23.77;100330.23;103515;1263;98472;-70